sensor_id;sensor_type;location;lat;lon;timestamp;temperature;humidity
31725;DHT22;18306;40.960;14.836;2023-05-07T00:00:56;18.00;99.90
31725;DHT22;18306;40.960;14.836;2023-05-07T00:03:23;18.00;99.90
31725;DHT22;18306;40.960;14.836;2023-05-07T00:05:50;18.00;99.90
31725;DHT22;18306;40.960;14.836;2023-05-07T00:08:18;18.00;99.90
31725;DHT22;18306;40.960;14.836;2023-05-07T00:10:45;17.90;99.90
31725;DHT22;18306;40.960;14.836;2023-05-07T00:13:13;17.90;99.90
31725;DHT22;18306;40.960;14.836;2023-05-07T00:15:39;18.00;99.90
31725;DHT22;18306;40.960;14.836;2023-05-07T00:18:06;18.10;99.90
31725;DHT22;18306;40.960;14.836;2023-05-07T00:20:33;18.10;99.90
31725;DHT22;18306;40.960;14.836;2023-05-07T00:23:01;18.10;99.90
31725;DHT22;18306;40.960;14.836;2023-05-07T00:25:28;18.10;99.90
31725;DHT22;18306;40.960;14.836;2023-05-07T00:27:55;18.00;99.90
31725;DHT22;18306;40.960;14.836;2023-05-07T00:30:22;17.90;99.90
31725;DHT22;18306;40.960;14.836;2023-05-07T00:32:49;17.80;99.90
31725;DHT22;18306;40.960;14.836;2023-05-07T00:35:17;17.70;99.90
31725;DHT22;18306;40.960;14.836;2023-05-07T00:37:44;17.70;99.90
31725;DHT22;18306;40.960;14.836;2023-05-07T00:40:11;17.70;99.90
31725;DHT22;18306;40.960;14.836;2023-05-07T00:42:38;17.60;99.90
31725;DHT22;18306;40.960;14.836;2023-05-07T00:45:06;17.60;99.90
31725;DHT22;18306;40.960;14.836;2023-05-07T00:47:35;17.60;99.90
31725;DHT22;18306;40.960;14.836;2023-05-07T00:50:03;17.60;99.90
31725;DHT22;18306;40.960;14.836;2023-05-07T00:52:32;17.50;99.90
31725;DHT22;18306;40.960;14.836;2023-05-07T00:55:05;17.50;99.90
31725;DHT22;18306;40.960;14.836;2023-05-07T00:57:36;17.40;99.90
31725;DHT22;18306;40.960;14.836;2023-05-07T01:00:08;17.40;99.90
31725;DHT22;18306;40.960;14.836;2023-05-07T01:02:39;17.30;99.90
31725;DHT22;18306;40.960;14.836;2023-05-07T01:05:09;17.30;99.90
31725;DHT22;18306;40.960;14.836;2023-05-07T01:07:37;17.30;99.90
31725;DHT22;18306;40.960;14.836;2023-05-07T01:10:06;17.40;99.90
31725;DHT22;18306;40.960;14.836;2023-05-07T01:12:35;17.50;99.90
31725;DHT22;18306;40.960;14.836;2023-05-07T01:15:04;17.50;99.90
31725;DHT22;18306;40.960;14.836;2023-05-07T01:17:36;17.40;99.90
31725;DHT22;18306;40.960;14.836;2023-05-07T01:20:05;17.40;99.90
31725;DHT22;18306;40.960;14.836;2023-05-07T01:22:36;17.40;99.90
31725;DHT22;18306;40.960;14.836;2023-05-07T01:25:04;17.30;99.90
31725;DHT22;18306;40.960;14.836;2023-05-07T01:27:33;17.30;99.90
31725;DHT22;18306;40.960;14.836;2023-05-07T01:30:00;17.30;99.90
31725;DHT22;18306;40.960;14.836;2023-05-07T01:35:11;17.10;99.90
31725;DHT22;18306;40.960;14.836;2023-05-07T01:37:39;17.10;99.90
31725;DHT22;18306;40.960;14.836;2023-05-07T01:40:08;17.00;99.90
31725;DHT22;18306;40.960;14.836;2023-05-07T01:42:35;17.00;99.90
31725;DHT22;18306;40.960;14.836;2023-05-07T01:45:03;16.90;99.90
31725;DHT22;18306;40.960;14.836;2023-05-07T01:47:30;16.90;99.90
31725;DHT22;18306;40.960;14.836;2023-05-07T01:49:58;16.80;99.90
31725;DHT22;18306;40.960;14.836;2023-05-07T01:52:25;16.70;99.90
31725;DHT22;18306;40.960;14.836;2023-05-07T01:54:52;16.60;99.90
31725;DHT22;18306;40.960;14.836;2023-05-07T01:57:19;16.60;99.90
31725;DHT22;18306;40.960;14.836;2023-05-07T01:59:46;16.70;99.90
31725;DHT22;18306;40.960;14.836;2023-05-07T02:02:13;16.60;99.90
31725;DHT22;18306;40.960;14.836;2023-05-07T02:04:43;16.50;99.90
31725;DHT22;18306;40.960;14.836;2023-05-07T02:07:10;16.40;99.90
31725;DHT22;18306;40.960;14.836;2023-05-07T02:09:38;16.50;99.90
31725;DHT22;18306;40.960;14.836;2023-05-07T02:12:05;16.70;99.90
31725;DHT22;18306;40.960;14.836;2023-05-07T02:14:32;16.90;99.90
31725;DHT22;18306;40.960;14.836;2023-05-07T02:16:59;17.00;99.90
31725;DHT22;18306;40.960;14.836;2023-05-07T02:19:26;16.90;99.90
31725;DHT22;18306;40.960;14.836;2023-05-07T02:21:53;16.90;99.90
31725;DHT22;18306;40.960;14.836;2023-05-07T02:24:20;16.90;99.90
31725;DHT22;18306;40.960;14.836;2023-05-07T02:26:48;16.90;99.90
31725;DHT22;18306;40.960;14.836;2023-05-07T02:29:14;16.60;99.90
31725;DHT22;18306;40.960;14.836;2023-05-07T02:31:42;16.30;99.90
31725;DHT22;18306;40.960;14.836;2023-05-07T02:34:08;16.00;99.90
31725;DHT22;18306;40.960;14.836;2023-05-07T02:36:35;16.00;99.90
31725;DHT22;18306;40.960;14.836;2023-05-07T02:39:11;16.20;99.90
31725;DHT22;18306;40.960;14.836;2023-05-07T02:41:39;16.30;99.90
31725;DHT22;18306;40.960;14.836;2023-05-07T02:44:06;16.50;99.90
31725;DHT22;18306;40.960;14.836;2023-05-07T02:46:33;16.50;99.90
31725;DHT22;18306;40.960;14.836;2023-05-07T02:49:04;16.70;99.90
31725;DHT22;18306;40.960;14.836;2023-05-07T02:51:32;16.80;99.90
31725;DHT22;18306;40.960;14.836;2023-05-07T02:54:02;16.80;99.90
31725;DHT22;18306;40.960;14.836;2023-05-07T02:56:30;16.80;99.90
31725;DHT22;18306;40.960;14.836;2023-05-07T02:58:57;16.80;99.90
31725;DHT22;18306;40.960;14.836;2023-05-07T03:01:29;16.80;99.90
31725;DHT22;18306;40.960;14.836;2023-05-07T03:04:03;16.90;99.90
31725;DHT22;18306;40.960;14.836;2023-05-07T03:06:30;17.00;99.90
31725;DHT22;18306;40.960;14.836;2023-05-07T03:08:57;17.00;99.90
31725;DHT22;18306;40.960;14.836;2023-05-07T03:11:24;17.00;99.90
31725;DHT22;18306;40.960;14.836;2023-05-07T03:13:51;17.10;99.90
31725;DHT22;18306;40.960;14.836;2023-05-07T03:16:20;17.00;99.90
31725;DHT22;18306;40.960;14.836;2023-05-07T03:18:48;16.90;99.90
31725;DHT22;18306;40.960;14.836;2023-05-07T03:21:15;16.80;99.90
31725;DHT22;18306;40.960;14.836;2023-05-07T03:23:41;16.80;99.90
31725;DHT22;18306;40.960;14.836;2023-05-07T03:26:09;16.80;99.90
31725;DHT22;18306;40.960;14.836;2023-05-07T03:28:36;16.70;99.90
31725;DHT22;18306;40.960;14.836;2023-05-07T03:31:07;16.70;99.90
31725;DHT22;18306;40.960;14.836;2023-05-07T03:33:34;16.70;99.90
31725;DHT22;18306;40.960;14.836;2023-05-07T03:36:01;16.60;99.90
31725;DHT22;18306;40.960;14.836;2023-05-07T03:38:29;16.60;99.90
31725;DHT22;18306;40.960;14.836;2023-05-07T03:40:56;16.60;99.90
31725;DHT22;18306;40.960;14.836;2023-05-07T03:43:23;16.60;99.90
31725;DHT22;18306;40.960;14.836;2023-05-07T03:45:58;16.60;99.90
31725;DHT22;18306;40.960;14.836;2023-05-07T03:48:27;16.60;99.90
31725;DHT22;18306;40.960;14.836;2023-05-07T03:51:00;16.60;99.90
31725;DHT22;18306;40.960;14.836;2023-05-07T03:53:31;16.50;99.90
31725;DHT22;18306;40.960;14.836;2023-05-07T03:55:58;16.40;99.90
31725;DHT22;18306;40.960;14.836;2023-05-07T03:58:25;16.40;99.90
31725;DHT22;18306;40.960;14.836;2023-05-07T04:00:55;16.40;99.90
31725;DHT22;18306;40.960;14.836;2023-05-07T04:03:26;16.40;99.90
31725;DHT22;18306;40.960;14.836;2023-05-07T04:05:56;16.40;99.90
31725;DHT22;18306;40.960;14.836;2023-05-07T04:08:23;16.40;99.90
31725;DHT22;18306;40.960;14.836;2023-05-07T04:10:57;16.40;99.90
31725;DHT22;18306;40.960;14.836;2023-05-07T04:13:27;16.30;99.90
31725;DHT22;18306;40.960;14.836;2023-05-07T04:15:55;16.20;99.90
31725;DHT22;18306;40.960;14.836;2023-05-07T04:18:23;16.30;99.90
31725;DHT22;18306;40.960;14.836;2023-05-07T04:20:50;16.40;99.90
31725;DHT22;18306;40.960;14.836;2023-05-07T04:23:17;16.40;99.90
31725;DHT22;18306;40.960;14.836;2023-05-07T04:25:44;16.40;99.90
31725;DHT22;18306;40.960;14.836;2023-05-07T04:28:32;16.50;99.90
31725;DHT22;18306;40.960;14.836;2023-05-07T04:30:59;16.60;99.90
31725;DHT22;18306;40.960;14.836;2023-05-07T04:33:27;16.60;99.90
31725;DHT22;18306;40.960;14.836;2023-05-07T04:35:57;16.60;99.90
31725;DHT22;18306;40.960;14.836;2023-05-07T04:38:24;16.70;99.90
31725;DHT22;18306;40.960;14.836;2023-05-07T04:40:54;16.70;99.90
31725;DHT22;18306;40.960;14.836;2023-05-07T04:43:24;16.60;99.90
31725;DHT22;18306;40.960;14.836;2023-05-07T04:45:51;16.70;99.90
31725;DHT22;18306;40.960;14.836;2023-05-07T04:48:20;16.80;99.90
31725;DHT22;18306;40.960;14.836;2023-05-07T04:50:49;16.80;99.90
31725;DHT22;18306;40.960;14.836;2023-05-07T04:53:18;16.80;99.90
31725;DHT22;18306;40.960;14.836;2023-05-07T04:55:45;16.70;99.90
31725;DHT22;18306;40.960;14.836;2023-05-07T04:58:13;16.90;99.90
31725;DHT22;18306;40.960;14.836;2023-05-07T05:00:41;16.90;99.90
31725;DHT22;18306;40.960;14.836;2023-05-07T05:03:09;17.00;99.90
31725;DHT22;18306;40.960;14.836;2023-05-07T05:05:38;17.10;99.90
31725;DHT22;18306;40.960;14.836;2023-05-07T05:08:05;17.20;99.90
31725;DHT22;18306;40.960;14.836;2023-05-07T05:10:35;17.30;99.90
31725;DHT22;18306;40.960;14.836;2023-05-07T05:13:02;17.30;99.90
31725;DHT22;18306;40.960;14.836;2023-05-07T05:15:29;17.40;99.90
31725;DHT22;18306;40.960;14.836;2023-05-07T05:17:57;17.40;99.90
31725;DHT22;18306;40.960;14.836;2023-05-07T05:20:24;17.60;99.90
31725;DHT22;18306;40.960;14.836;2023-05-07T05:22:51;17.50;99.90
31725;DHT22;18306;40.960;14.836;2023-05-07T05:25:19;17.50;99.90
31725;DHT22;18306;40.960;14.836;2023-05-07T05:27:47;17.50;99.90
31725;DHT22;18306;40.960;14.836;2023-05-07T05:30:14;17.50;99.90
31725;DHT22;18306;40.960;14.836;2023-05-07T05:32:44;17.60;99.90
31725;DHT22;18306;40.960;14.836;2023-05-07T05:35:11;17.60;99.90
31725;DHT22;18306;40.960;14.836;2023-05-07T05:37:47;17.70;99.90
31725;DHT22;18306;40.960;14.836;2023-05-07T05:40:29;17.80;99.90
31725;DHT22;18306;40.960;14.836;2023-05-07T05:43:05;17.90;99.90
31725;DHT22;18306;40.960;14.836;2023-05-07T05:45:45;18.00;99.90
31725;DHT22;18306;40.960;14.836;2023-05-07T05:48:20;17.90;99.90
31725;DHT22;18306;40.960;14.836;2023-05-07T05:50:48;17.90;99.90
31725;DHT22;18306;40.960;14.836;2023-05-07T05:53:20;17.90;99.90
31725;DHT22;18306;40.960;14.836;2023-05-07T05:55:47;17.70;99.90
31725;DHT22;18306;40.960;14.836;2023-05-07T05:58:15;17.70;99.90
31725;DHT22;18306;40.960;14.836;2023-05-07T06:00:49;17.60;99.90
31725;DHT22;18306;40.960;14.836;2023-05-07T06:03:19;17.60;99.90
31725;DHT22;18306;40.960;14.836;2023-05-07T06:05:47;17.60;99.90
31725;DHT22;18306;40.960;14.836;2023-05-07T06:08:15;17.80;99.90
31725;DHT22;18306;40.960;14.836;2023-05-07T06:10:42;17.90;99.90
31725;DHT22;18306;40.960;14.836;2023-05-07T06:13:09;18.00;99.90
31725;DHT22;18306;40.960;14.836;2023-05-07T06:15:37;18.10;99.90
31725;DHT22;18306;40.960;14.836;2023-05-07T06:18:09;18.00;99.90
31725;DHT22;18306;40.960;14.836;2023-05-07T06:20:36;18.10;99.90
31725;DHT22;18306;40.960;14.836;2023-05-07T06:23:07;18.30;99.90
31725;DHT22;18306;40.960;14.836;2023-05-07T06:25:34;18.50;99.90
31725;DHT22;18306;40.960;14.836;2023-05-07T06:28:01;18.80;99.90
31725;DHT22;18306;40.960;14.836;2023-05-07T06:30:29;18.80;99.90
31725;DHT22;18306;40.960;14.836;2023-05-07T06:32:56;18.70;99.90
31725;DHT22;18306;40.960;14.836;2023-05-07T06:35:24;18.70;99.90
31725;DHT22;18306;40.960;14.836;2023-05-07T06:37:51;18.80;99.90
31725;DHT22;18306;40.960;14.836;2023-05-07T06:40:23;18.80;99.90
31725;DHT22;18306;40.960;14.836;2023-05-07T06:42:50;18.90;99.90
31725;DHT22;18306;40.960;14.836;2023-05-07T06:45:24;18.90;99.90
31725;DHT22;18306;40.960;14.836;2023-05-07T06:47:54;19.20;99.90
31725;DHT22;18306;40.960;14.836;2023-05-07T06:50:22;19.40;99.90
31725;DHT22;18306;40.960;14.836;2023-05-07T06:52:50;19.40;99.90
31725;DHT22;18306;40.960;14.836;2023-05-07T06:55:17;19.50;99.90
31725;DHT22;18306;40.960;14.836;2023-05-07T06:57:46;19.70;99.90
31725;DHT22;18306;40.960;14.836;2023-05-07T07:00:14;20.00;99.90
31725;DHT22;18306;40.960;14.836;2023-05-07T07:02:50;20.20;99.90
31725;DHT22;18306;40.960;14.836;2023-05-07T07:05:20;20.30;99.90
31725;DHT22;18306;40.960;14.836;2023-05-07T07:07:48;20.30;99.90
31725;DHT22;18306;40.960;14.836;2023-05-07T07:10:20;20.40;99.90
31725;DHT22;18306;40.960;14.836;2023-05-07T07:12:49;20.50;99.90
31725;DHT22;18306;40.960;14.836;2023-05-07T07:15:16;20.50;99.90
31725;DHT22;18306;40.960;14.836;2023-05-07T07:17:45;20.40;99.90
31725;DHT22;18306;40.960;14.836;2023-05-07T07:20:12;20.50;99.90
31725;DHT22;18306;40.960;14.836;2023-05-07T07:22:39;20.60;99.90
31725;DHT22;18306;40.960;14.836;2023-05-07T07:25:07;20.70;99.90
31725;DHT22;18306;40.960;14.836;2023-05-07T07:27:35;20.80;99.90
31725;DHT22;18306;40.960;14.836;2023-05-07T07:30:02;21.10;99.90
31725;DHT22;18306;40.960;14.836;2023-05-07T07:32:33;21.30;99.90
31725;DHT22;18306;40.960;14.836;2023-05-07T07:35:00;21.30;99.90
31725;DHT22;18306;40.960;14.836;2023-05-07T07:37:28;21.50;99.90
31725;DHT22;18306;40.960;14.836;2023-05-07T07:39:57;21.80;99.90
31725;DHT22;18306;40.960;14.836;2023-05-07T07:42:24;22.10;99.90
31725;DHT22;18306;40.960;14.836;2023-05-07T07:44:52;22.70;99.90
31725;DHT22;18306;40.960;14.836;2023-05-07T07:47:22;23.80;99.90
31725;DHT22;18306;40.960;14.836;2023-05-07T07:49:50;25.10;99.90
31725;DHT22;18306;40.960;14.836;2023-05-07T07:52:18;26.40;99.90
31725;DHT22;18306;40.960;14.836;2023-05-07T07:54:46;27.10;99.90
31725;DHT22;18306;40.960;14.836;2023-05-07T07:57:13;27.60;99.90
31725;DHT22;18306;40.960;14.836;2023-05-07T07:59:40;27.90;99.90
31725;DHT22;18306;40.960;14.836;2023-05-07T08:02:10;28.30;99.10
31725;DHT22;18306;40.960;14.836;2023-05-07T08:04:39;28.70;98.30
31725;DHT22;18306;40.960;14.836;2023-05-07T08:07:07;28.90;97.90
31725;DHT22;18306;40.960;14.836;2023-05-07T08:09:38;28.60;98.00
31725;DHT22;18306;40.960;14.836;2023-05-07T08:12:06;28.20;98.50
31725;DHT22;18306;40.960;14.836;2023-05-07T08:14:34;27.80;98.40
31725;DHT22;18306;40.960;14.836;2023-05-07T08:17:04;27.60;98.50
31725;DHT22;18306;40.960;14.836;2023-05-07T08:19:33;27.30;99.20
31725;DHT22;18306;40.960;14.836;2023-05-07T08:22:03;26.90;99.60
31725;DHT22;18306;40.960;14.836;2023-05-07T08:24:31;26.50;99.90
31725;DHT22;18306;40.960;14.836;2023-05-07T08:26:58;26.10;99.90
31725;DHT22;18306;40.960;14.836;2023-05-07T08:29:25;26.00;99.90
31725;DHT22;18306;40.960;14.836;2023-05-07T08:31:59;26.00;99.90
31725;DHT22;18306;40.960;14.836;2023-05-07T08:34:34;25.90;99.80
31725;DHT22;18306;40.960;14.836;2023-05-07T08:37:04;25.80;99.90
31725;DHT22;18306;40.960;14.836;2023-05-07T08:39:32;25.80;99.90
31725;DHT22;18306;40.960;14.836;2023-05-07T08:42:00;25.70;99.90
31725;DHT22;18306;40.960;14.836;2023-05-07T08:44:35;25.50;99.90
31725;DHT22;18306;40.960;14.836;2023-05-07T08:47:08;25.50;99.90
31725;DHT22;18306;40.960;14.836;2023-05-07T08:49:40;25.30;99.90
31725;DHT22;18306;40.960;14.836;2023-05-07T08:52:08;25.40;99.90
31725;DHT22;18306;40.960;14.836;2023-05-07T08:54:37;25.20;99.90
31725;DHT22;18306;40.960;14.836;2023-05-07T08:57:07;25.30;99.90
31725;DHT22;18306;40.960;14.836;2023-05-07T08:59:37;25.40;99.90
31725;DHT22;18306;40.960;14.836;2023-05-07T09:02:07;25.40;99.90
31725;DHT22;18306;40.960;14.836;2023-05-07T09:04:40;25.40;99.90
31725;DHT22;18306;40.960;14.836;2023-05-07T09:07:08;25.30;99.90
31725;DHT22;18306;40.960;14.836;2023-05-07T09:09:44;25.20;99.90
31725;DHT22;18306;40.960;14.836;2023-05-07T09:12:18;25.20;99.90
31725;DHT22;18306;40.960;14.836;2023-05-07T09:14:45;25.20;99.90
31725;DHT22;18306;40.960;14.836;2023-05-07T09:17:15;25.20;99.90
31725;DHT22;18306;40.960;14.836;2023-05-07T09:19:44;25.10;99.90
31725;DHT22;18306;40.960;14.836;2023-05-07T09:22:16;25.20;99.90
31725;DHT22;18306;40.960;14.836;2023-05-07T09:25:04;25.30;99.90
31725;DHT22;18306;40.960;14.836;2023-05-07T09:27:32;25.30;99.90
31725;DHT22;18306;40.960;14.836;2023-05-07T09:30:07;25.10;99.90
31725;DHT22;18306;40.960;14.836;2023-05-07T09:32:39;25.00;99.90
31725;DHT22;18306;40.960;14.836;2023-05-07T09:35:17;25.10;99.90
31725;DHT22;18306;40.960;14.836;2023-05-07T09:37:58;25.00;99.90
31725;DHT22;18306;40.960;14.836;2023-05-07T09:40:28;25.00;99.90
31725;DHT22;18306;40.960;14.836;2023-05-07T09:43:12;25.00;99.90
31725;DHT22;18306;40.960;14.836;2023-05-07T09:45:44;25.10;99.90
31725;DHT22;18306;40.960;14.836;2023-05-07T09:48:15;24.90;99.90
31725;DHT22;18306;40.960;14.836;2023-05-07T09:50:51;24.80;99.90
31725;DHT22;18306;40.960;14.836;2023-05-07T09:53:25;25.00;99.90
31725;DHT22;18306;40.960;14.836;2023-05-07T09:55:56;25.20;99.90
31725;DHT22;18306;40.960;14.836;2023-05-07T09:58:26;25.20;99.90
31725;DHT22;18306;40.960;14.836;2023-05-07T10:00:54;25.30;99.90
31725;DHT22;18306;40.960;14.836;2023-05-07T10:03:24;25.30;99.90
31725;DHT22;18306;40.960;14.836;2023-05-07T10:06:01;25.20;99.90
31725;DHT22;18306;40.960;14.836;2023-05-07T10:08:31;25.20;99.90
31725;DHT22;18306;40.960;14.836;2023-05-07T10:11:03;25.30;99.90
31725;DHT22;18306;40.960;14.836;2023-05-07T10:13:34;25.40;99.90
31725;DHT22;18306;40.960;14.836;2023-05-07T10:16:08;25.40;99.90
31725;DHT22;18306;40.960;14.836;2023-05-07T10:18:45;25.30;99.90
31725;DHT22;18306;40.960;14.836;2023-05-07T10:21:18;25.40;99.90
31725;DHT22;18306;40.960;14.836;2023-05-07T10:24:03;25.50;99.90
31725;DHT22;18306;40.960;14.836;2023-05-07T10:26:34;25.70;99.90
31725;DHT22;18306;40.960;14.836;2023-05-07T10:29:07;25.80;99.90
31725;DHT22;18306;40.960;14.836;2023-05-07T10:34:36;25.60;99.90
31725;DHT22;18306;40.960;14.836;2023-05-07T10:37:08;25.40;99.90
31725;DHT22;18306;40.960;14.836;2023-05-07T10:39:41;25.50;99.90
31725;DHT22;18306;40.960;14.836;2023-05-07T10:42:18;25.80;99.90
31725;DHT22;18306;40.960;14.836;2023-05-07T10:45:14;25.90;99.90
31725;DHT22;18306;40.960;14.836;2023-05-07T10:48:13;25.90;99.90
31725;DHT22;18306;40.960;14.836;2023-05-07T10:50:43;26.00;99.90
31725;DHT22;18306;40.960;14.836;2023-05-07T10:53:20;26.00;99.90
31725;DHT22;18306;40.960;14.836;2023-05-07T10:58:49;26.10;99.90
31725;DHT22;18306;40.960;14.836;2023-05-07T11:01:59;26.10;99.90
31725;DHT22;18306;40.960;14.836;2023-05-07T11:04:35;26.00;99.90
31725;DHT22;18306;40.960;14.836;2023-05-07T11:07:24;25.90;99.90
31725;DHT22;18306;40.960;14.836;2023-05-07T11:15:14;26.30;99.90
31725;DHT22;18306;40.960;14.836;2023-05-07T11:18:00;26.40;99.90
31725;DHT22;18306;40.960;14.836;2023-05-07T11:20:58;26.70;99.90
31725;DHT22;18306;40.960;14.836;2023-05-07T11:26:44;26.90;99.90
31725;DHT22;18306;40.960;14.836;2023-05-07T11:29:20;27.00;99.90
31725;DHT22;18306;40.960;14.836;2023-05-07T11:31:52;26.80;99.90
31725;DHT22;18306;40.960;14.836;2023-05-07T11:34:26;26.90;99.90
31725;DHT22;18306;40.960;14.836;2023-05-07T11:36:55;27.00;99.90
31725;DHT22;18306;40.960;14.836;2023-05-07T11:39:37;27.00;99.90
31725;DHT22;18306;40.960;14.836;2023-05-07T11:42:04;27.00;99.90
31725;DHT22;18306;40.960;14.836;2023-05-07T11:44:41;26.90;99.90
31725;DHT22;18306;40.960;14.836;2023-05-07T11:47:10;26.60;99.90
31725;DHT22;18306;40.960;14.836;2023-05-07T11:49:37;26.50;99.90
31725;DHT22;18306;40.960;14.836;2023-05-07T11:52:04;26.50;99.90
31725;DHT22;18306;40.960;14.836;2023-05-07T11:54:37;26.50;99.90
31725;DHT22;18306;40.960;14.836;2023-05-07T11:57:05;26.50;99.90
31725;DHT22;18306;40.960;14.836;2023-05-07T11:59:41;26.30;99.90
31725;DHT22;18306;40.960;14.836;2023-05-07T12:02:11;26.20;99.90
31725;DHT22;18306;40.960;14.836;2023-05-07T12:04:40;26.10;99.90
31725;DHT22;18306;40.960;14.836;2023-05-07T12:07:17;26.10;99.90
31725;DHT22;18306;40.960;14.836;2023-05-07T12:09:45;26.10;99.90
31725;DHT22;18306;40.960;14.836;2023-05-07T12:12:12;26.10;99.90
31725;DHT22;18306;40.960;14.836;2023-05-07T12:14:43;26.10;99.90
31725;DHT22;18306;40.960;14.836;2023-05-07T12:17:11;25.90;99.90
31725;DHT22;18306;40.960;14.836;2023-05-07T12:19:40;25.90;99.90
31725;DHT22;18306;40.960;14.836;2023-05-07T12:22:08;26.10;99.90
31725;DHT22;18306;40.960;14.836;2023-05-07T12:24:46;26.00;99.90
31725;DHT22;18306;40.960;14.836;2023-05-07T12:27:14;25.90;99.90
31725;DHT22;18306;40.960;14.836;2023-05-07T12:29:49;26.10;99.90
31725;DHT22;18306;40.960;14.836;2023-05-07T12:32:18;26.20;99.90
31725;DHT22;18306;40.960;14.836;2023-05-07T12:34:45;26.30;99.90
31725;DHT22;18306;40.960;14.836;2023-05-07T12:37:15;26.50;99.90
31725;DHT22;18306;40.960;14.836;2023-05-07T12:39:48;26.70;99.90
31725;DHT22;18306;40.960;14.836;2023-05-07T12:42:16;26.90;99.90
31725;DHT22;18306;40.960;14.836;2023-05-07T12:44:46;27.10;99.90
31725;DHT22;18306;40.960;14.836;2023-05-07T12:47:15;27.40;99.90
31725;DHT22;18306;40.960;14.836;2023-05-07T12:49:43;27.20;99.90
31725;DHT22;18306;40.960;14.836;2023-05-07T12:52:13;27.20;99.90
31725;DHT22;18306;40.960;14.836;2023-05-07T12:54:40;27.10;99.90
31725;DHT22;18306;40.960;14.836;2023-05-07T12:57:09;27.00;99.90
31725;DHT22;18306;40.960;14.836;2023-05-07T12:59:38;26.60;99.90
31725;DHT22;18306;40.960;14.836;2023-05-07T13:02:09;26.30;99.90
31725;DHT22;18306;40.960;14.836;2023-05-07T13:04:39;26.00;99.90
31725;DHT22;18306;40.960;14.836;2023-05-07T13:07:07;25.80;99.90
31725;DHT22;18306;40.960;14.836;2023-05-07T13:09:36;25.60;99.90
31725;DHT22;18306;40.960;14.836;2023-05-07T13:12:31;25.60;99.90
31725;DHT22;18306;40.960;14.836;2023-05-07T13:15:05;25.60;99.90
31725;DHT22;18306;40.960;14.836;2023-05-07T13:17:41;25.50;99.90
31725;DHT22;18306;40.960;14.836;2023-05-07T13:20:20;25.40;99.90
31725;DHT22;18306;40.960;14.836;2023-05-07T13:22:50;25.20;99.90
31725;DHT22;18306;40.960;14.836;2023-05-07T13:25:18;25.20;99.90
31725;DHT22;18306;40.960;14.836;2023-05-07T13:27:45;25.10;99.90
31725;DHT22;18306;40.960;14.836;2023-05-07T13:30:21;25.10;99.90
31725;DHT22;18306;40.960;14.836;2023-05-07T13:32:48;25.00;99.90
31725;DHT22;18306;40.960;14.836;2023-05-07T13:35:30;25.10;99.90
31725;DHT22;18306;40.960;14.836;2023-05-07T13:37:57;25.20;99.90
31725;DHT22;18306;40.960;14.836;2023-05-07T13:40:24;25.10;99.90
31725;DHT22;18306;40.960;14.836;2023-05-07T13:42:57;24.60;99.90
31725;DHT22;18306;40.960;14.836;2023-05-07T13:45:25;24.30;99.90
31725;DHT22;18306;40.960;14.836;2023-05-07T13:47:52;24.30;99.90
31725;DHT22;18306;40.960;14.836;2023-05-07T13:50:19;24.60;99.90
31725;DHT22;18306;40.960;14.836;2023-05-07T13:52:46;24.40;99.90
31725;DHT22;18306;40.960;14.836;2023-05-07T13:55:23;24.10;99.90
31725;DHT22;18306;40.960;14.836;2023-05-07T13:57:58;23.90;99.90
31725;DHT22;18306;40.960;14.836;2023-05-07T14:00:26;23.80;99.90
31725;DHT22;18306;40.960;14.836;2023-05-07T14:02:55;23.70;99.90
31725;DHT22;18306;40.960;14.836;2023-05-07T14:05:22;23.60;99.90
31725;DHT22;18306;40.960;14.836;2023-05-07T14:07:56;23.60;99.90
31725;DHT22;18306;40.960;14.836;2023-05-07T14:10:24;23.80;99.90
31725;DHT22;18306;40.960;14.836;2023-05-07T14:12:51;23.70;99.90
31725;DHT22;18306;40.960;14.836;2023-05-07T14:15:19;23.60;99.90
31725;DHT22;18306;40.960;14.836;2023-05-07T14:17:47;23.60;99.90
31725;DHT22;18306;40.960;14.836;2023-05-07T14:20:14;23.50;99.90
31725;DHT22;18306;40.960;14.836;2023-05-07T14:22:41;23.50;99.90
31725;DHT22;18306;40.960;14.836;2023-05-07T14:25:08;23.80;99.90
31725;DHT22;18306;40.960;14.836;2023-05-07T14:27:39;24.10;99.90
31725;DHT22;18306;40.960;14.836;2023-05-07T14:30:07;24.00;99.90
31725;DHT22;18306;40.960;14.836;2023-05-07T14:32:34;24.00;99.90
31725;DHT22;18306;40.960;14.836;2023-05-07T14:35:03;24.20;99.90
31725;DHT22;18306;40.960;14.836;2023-05-07T14:37:33;24.40;99.90
31725;DHT22;18306;40.960;14.836;2023-05-07T14:40:00;24.50;99.90
31725;DHT22;18306;40.960;14.836;2023-05-07T14:42:28;24.50;99.90
31725;DHT22;18306;40.960;14.836;2023-05-07T14:44:57;24.80;99.90
31725;DHT22;18306;40.960;14.836;2023-05-07T14:47:30;24.70;99.90
31725;DHT22;18306;40.960;14.836;2023-05-07T14:49:57;24.50;99.90
31725;DHT22;18306;40.960;14.836;2023-05-07T14:52:25;24.40;99.90
31725;DHT22;18306;40.960;14.836;2023-05-07T14:54:52;24.20;99.90
31725;DHT22;18306;40.960;14.836;2023-05-07T14:57:21;24.20;99.90
31725;DHT22;18306;40.960;14.836;2023-05-07T14:59:49;24.30;99.90
31725;DHT22;18306;40.960;14.836;2023-05-07T15:02:16;24.50;99.90
31725;DHT22;18306;40.960;14.836;2023-05-07T15:04:44;24.40;99.90
31725;DHT22;18306;40.960;14.836;2023-05-07T15:07:16;24.50;99.90
31725;DHT22;18306;40.960;14.836;2023-05-07T15:09:46;24.60;99.90
31725;DHT22;18306;40.960;14.836;2023-05-07T15:12:15;24.60;99.90
31725;DHT22;18306;40.960;14.836;2023-05-07T15:14:42;24.40;99.90
31725;DHT22;18306;40.960;14.836;2023-05-07T15:17:09;24.30;99.90
31725;DHT22;18306;40.960;14.836;2023-05-07T15:19:36;24.10;99.90
31725;DHT22;18306;40.960;14.836;2023-05-07T15:22:03;24.10;99.90
31725;DHT22;18306;40.960;14.836;2023-05-07T15:24:31;24.20;99.90
31725;DHT22;18306;40.960;14.836;2023-05-07T15:27:00;24.50;99.90
31725;DHT22;18306;40.960;14.836;2023-05-07T15:29:29;24.50;99.90
31725;DHT22;18306;40.960;14.836;2023-05-07T15:31:58;24.40;99.90
31725;DHT22;18306;40.960;14.836;2023-05-07T15:34:25;24.40;99.90
31725;DHT22;18306;40.960;14.836;2023-05-07T15:36:54;24.60;99.90
31725;DHT22;18306;40.960;14.836;2023-05-07T15:39:23;24.70;99.90
31725;DHT22;18306;40.960;14.836;2023-05-07T15:41:50;24.70;99.90
31725;DHT22;18306;40.960;14.836;2023-05-07T15:44:20;24.40;99.90
31725;DHT22;18306;40.960;14.836;2023-05-07T15:46:46;24.30;99.90
31725;DHT22;18306;40.960;14.836;2023-05-07T15:49:15;24.40;99.90